Hlavní strana
METAR-TAF:

METAR-TAF

Letiště :

Letiště Leoše Janáčka Ostrava

Ostrava, Česká republika

zeměpisná šířka: 49-41N, zeměpisná délka: 018-07E, výška: 256 m

Aktuální stav počasí

Zpráva byla vytvořena před 17 minutami, v 10:30 UTC
Jihozápadní vítr 15 kt
Teplota 9°C
Vlhkost vzduchu 61%
Tlak 1023 hPa
Viditelnost 10 km a více
Žádná oblačnost pod 1500 m, nevyskytují se cumulonimby.

METAR: LKMT 181030Z 23015KT CAVOK 09/02 Q1023 NOSIG

Čas: 11:47 (10:47 UTC)

Předpověď počasí

Zpráva byla vytvořena před 5 hodinami a 47 minutami, v 05:00 UTC
Předpověď platná od 18 v 06 UTC do 19 v 12 UTC
Jihojihozápadní vítr 8 kt
Viditelnost 10 km a více
Žádná oblačnost pod 1500 m, nevyskytují se cumulonimby.
Dočasný
od 18 v 10 UTC do 18 v 16 UTC
Jihozápadní vítr 16 kt
Dočasný
od 19 v 10 UTC do 19 v 12 UTC
Jihozápadní vítr 16 kt s nárazy do 28 kt

TAF: LKMT 180500Z 1806/1912 21008KT CAVOK TEMPO 1810/1816 22016KT TEMPO 1910/1912 22016G28KT

Stav a předpovědi počasí z více než 4 000 letišť (zprávy METAR a TAF).

Červené a žluté tečky na mapě představují dostupné meteorologické stanice.

Když kurzor umístíte na tečku, zobrazí se název stanice.

Pak kliknutím zobrazíte stav a předpověď počasí.

Chcete-li změnit mapu, kliknutím na zelené tlačítko se znaménkem +mapu přiblížíte, kliknutím na zelené tlačítko se znaménkem – mapu oddálíte a kliknutím na zelené šipky přejdete na sousední mapy.


METAR-TAF: